Time;durP1;ratioP1;P1;durP2;ratioP2;P2;SDS_P1;SDS_P2;PMS_P1;PMS_P2;Temp;Humidity;BMP_temperature;BMP_pressure;BME280_temperature;BME280_humidity;BME280_pressure;Samples;Min_cycle;Max_cycle;Signal;HPM_P1;HPM_P2
2023/06/09 00:01:25;;;;;;;15.60;6.10;;;;;;;16.04;65.91;100135.86;108436;1269;25586;-82
2023/06/09 00:03:56;;;;;;;14.70;5.90;;;;;;;15.96;65.98;100132.58;108295;1276;23305;-81
2023/06/09 00:06:28;;;;;;;13.30;5.50;;;;;;;15.89;66.10;100129.33;108129;1276;22760;-81
2023/06/09 00:08:58;;;;;;;14.80;6.10;;;;;;;15.83;66.42;100129.87;108280;1273;22519;-81
2023/06/09 00:11:29;;;;;;;13.00;5.60;;;;;;;15.77;66.48;100127.84;108316;1268;22518;-81
2023/06/09 00:14:00;;;;;;;17.10;6.00;;;;;;;15.73;66.49;100126.63;108492;1272;22795;-81
2023/06/09 00:16:32;;;;;;;15.90;5.40;;;;;;;15.70;66.44;100127.14;108437;1268;22594;-81
2023/06/09 00:19:03;;;;;;;14.80;5.40;;;;;;;15.66;66.76;100128.25;108402;1276;22538;-82
2023/06/09 00:21:37;;;;;;;18.60;5.90;;;;;;;15.60;67.00;100126.58;107853;1276;22537;-81
2023/06/09 00:24:09;;;;;;;19.20;6.10;;;;;;;15.56;66.83;100124.64;108438;1269;25092;-81
2023/06/09 00:26:40;;;;;;;14.00;5.30;;;;;;;15.52;66.98;100126.02;108395;1256;22514;-82
2023/06/09 00:29:11;;;;;;;14.60;4.90;;;;;;;15.51;67.22;100124.56;108456;1271;22517;-82
2023/06/09 00:31:42;;;;;;;12.50;6.00;;;;;;;15.46;67.67;100126.52;108378;1271;25312;-81
2023/06/09 00:34:12;;;;;;;14.80;5.80;;;;;;;15.43;67.86;100128.19;108458;1275;22536;-81
2023/06/09 00:36:43;;;;;;;13.50;4.80;;;;;;;15.39;67.88;100129.58;108405;1274;25282;-81
2023/06/09 00:39:14;;;;;;;14.90;5.90;;;;;;;15.33;68.06;100131.67;108527;1271;22591;-82
2023/06/09 00:41:45;;;;;;;16.50;5.40;;;;;;;15.25;68.17;100130.41;108446;1275;24271;-81
2023/06/09 00:44:17;;;;;;;15.60;5.60;;;;;;;15.19;68.33;100128.38;108545;1275;22582;-82
2023/06/09 00:46:48;;;;;;;15.00;5.60;;;;;;;15.15;68.65;100126.96;108500;1270;25244;-82
2023/06/09 00:49:19;;;;;;;13.90;5.60;;;;;;;15.11;68.64;100125.48;108324;1269;24191;-82
2023/06/09 00:51:50;;;;;;;14.00;5.70;;;;;;;15.07;68.64;100125.98;108363;1275;25321;-81
2023/06/09 00:54:21;;;;;;;15.40;4.80;;;;;;;15.05;68.60;100122.61;108247;1275;22507;-81
2023/06/09 00:56:52;;;;;;;14.20;5.20;;;;;;;15.03;68.84;100121.49;108228;1272;22532;-81
2023/06/09 00:59:23;;;;;;;11.90;4.90;;;;;;;14.97;68.96;100120.27;108236;1275;22548;-81
2023/06/09 01:01:54;;;;;;;11.80;4.90;;;;;;;14.93;69.11;100121.86;108379;1271;22659;-81
2023/06/09 01:04:25;;;;;;;16.40;6.20;;;;;;;14.91;68.97;100124.22;108379;1272;22516;-81
2023/06/09 01:07:04;;;;;;;12.20;5.30;;;;;;;14.91;69.17;100127.17;108419;1275;22648;-82
2023/06/09 01:09:39;;;;;;;12.40;5.70;;;;;;;14.86;69.37;100126.16;108416;1271;23951;-81
2023/06/09 01:12:20;;;;;;;15.10;6.30;;;;;;;14.85;69.39;100126.11;108512;1275;22735;-82
2023/06/09 01:14:59;;;;;;;14.30;5.50;;;;;;;14.85;69.56;100125.85;108417;1270;25896;-81
2023/06/09 01:17:32;;;;;;;15.70;6.40;;;;;;;14.85;69.56;100126.52;108366;1275;22533;-81
2023/06/09 01:20:04;;;;;;;11.90;5.10;;;;;;;14.84;69.70;100122.94;108441;1271;22547;-81
2023/06/09 01:22:45;;;;;;;16.00;5.80;;;;;;;14.83;69.87;100123.45;108426;1269;22486;-81
2023/06/09 01:25:34;;;;;;;18.10;6.50;;;;;;;14.81;69.86;100125.02;108924;1267;22604;-81
2023/06/09 01:28:11;;;;;;;17.40;5.70;;;;;;;14.80;70.23;100126.32;110454;1275;22147;-82
2023/06/09 01:30:46;;;;;;;16.70;6.50;;;;;;;14.74;70.29;100124.16;110504;1275;23325;-83
2023/06/09 01:33:20;;;;;;;16.10;6.20;;;;;;;14.69;70.74;100123.70;110013;1275;23185;-82
2023/06/09 01:35:52;;;;;;;13.80;5.70;;;;;;;14.67;70.44;100123.19;108502;1275;22554;-82
2023/06/09 01:38:25;;;;;;;12.70;5.80;;;;;;;14.67;70.61;100122.42;108606;1275;23677;-81
2023/06/09 01:40:56;;;;;;;14.60;5.20;;;;;;;14.66;70.83;100123.85;108455;1269;23624;-81
2023/06/09 01:43:26;;;;;;;15.00;6.30;;;;;;;14.61;71.01;100122.42;108421;1275;22540;-81
2023/06/09 01:45:58;;;;;;;14.60;6.00;;;;;;;14.56;71.06;100119.35;108348;1275;22542;-81
2023/06/09 01:48:43;;;;;;;13.80;6.10;;;;;;;14.53;70.99;100115.67;108615;1269;25428;-81
2023/06/09 01:51:22;;;;;;;16.30;6.90;;;;;;;14.51;71.13;100113.52;108194;1275;22529;-81
2023/06/09 01:54:00;;;;;;;15.90;6.10;;;;;;;14.47;71.19;100111.79;108337;1275;22512;-81
2023/06/09 01:56:38;;;;;;;14.10;5.90;;;;;;;14.42;71.83;100109.13;108481;1271;22598;-81
2023/06/09 01:59:14;;;;;;;17.50;6.60;;;;;;;14.33;71.91;100112.08;110519;1275;22177;-81
2023/06/09 02:01:47;;;;;;;18.70;6.30;;;;;;;14.26;72.22;100116.79;109001;1269;22504;-81
2023/06/09 02:04:20;;;;;;;17.50;6.00;;;;;;;14.19;72.24;100115.55;108525;1269;22526;-81
2023/06/09 02:06:52;;;;;;;17.20;6.60;;;;;;;14.14;72.30;100112.96;108417;1269;25275;-81
2023/06/09 02:09:23;;;;;;;16.70;6.30;;;;;;;14.10;72.00;100115.67;108525;1271;23310;-81
2023/06/09 02:11:55;;;;;;;20.40;6.50;;;;;;;14.10;72.50;100116.17;108472;1275;22577;-81
2023/06/09 02:14:34;;;;;;;16.40;6.00;;;;;;;14.05;72.65;100116.58;108511;1271;25418;-81
2023/06/09 02:17:08;;;;;;;18.90;6.70;;;;;;;14.00;72.77;100115.48;110464;1271;22324;-82
2023/06/09 02:19:39;;;;;;;17.50;5.80;;;;;;;13.95;72.81;100115.11;110454;1270;22423;-84
2023/06/09 02:22:10;;;;;;;16.20;6.80;;;;;;;13.90;72.92;100114.39;110493;1275;22150;-85
2023/06/09 02:24:41;;;;;;;17.20;6.40;;;;;;;13.87;73.42;100114.77;110495;1275;22396;-85
2023/06/09 02:27:12;;;;;;;13.30;6.20;;;;;;;13.84;74.20;100109.97;110457;1272;23183;-86
2023/06/09 02:29:43;;;;;;;17.20;6.70;;;;;;;13.80;74.45;100108.27;110474;1275;22354;-84
2023/06/09 02:32:14;;;;;;;13.40;7.10;;;;;;;13.80;74.56;100103.52;110425;1272;22211;-85
2023/06/09 02:34:46;;;;;;;19.30;6.80;;;;;;;13.83;74.61;100101.91;110463;1268;22165;-85
2023/06/09 02:37:17;;;;;;;17.40;6.40;;;;;;;13.86;74.93;100100.59;110462;1275;22415;-85
2023/06/09 02:39:48;;;;;;;23.30;7.10;;;;;;;13.86;74.95;100099.52;109631;1275;22652;-84
2023/06/09 02:42:19;;;;;;;18.90;6.80;;;;;;;13.86;74.93;100105.13;108511;1272;24188;-84
2023/06/09 02:44:50;;;;;;;14.90;6.10;;;;;;;13.86;75.18;100103.35;108718;1275;22552;-83
2023/06/09 02:47:20;;;;;;;14.30;6.40;;;;;;;13.84;75.15;100100.48;108970;1273;22529;-84
2023/06/09 02:49:51;;;;;;;14.50;6.00;;;;;;;13.83;74.87;100104.61;108672;1275;22540;-84
2023/06/09 02:52:22;;;;;;;21.00;6.60;;;;;;;13.86;74.89;100108.45;108677;1269;22482;-84
2023/06/09 02:54:53;;;;;;;16.20;6.70;;;;;;;13.87;74.97;100108.91;108555;1257;22908;-84
2023/06/09 02:57:25;;;;;;;17.40;7.90;;;;;;;13.87;75.45;100111.77;108459;1270;22572;-85
2023/06/09 03:00:03;;;;;;;14.50;6.80;;;;;;;13.88;75.36;100107.13;108392;1271;22557;-83
2023/06/09 03:02:40;;;;;;;17.90;7.20;;;;;;;13.88;75.60;100112.73;108593;1269;22521;-83
2023/06/09 03:05:31;;;;;;;14.60;6.50;;;;;;;13.86;75.48;100110.74;108499;1275;22722;-84
2023/06/09 03:08:02;;;;;;;15.90;7.30;;;;;;;13.85;75.83;100115.17;108519;1272;23377;-84
2023/06/09 03:10:32;;;;;;;16.50;6.90;;;;;;;13.86;75.82;100114.05;108576;1269;23018;-84
2023/06/09 03:13:03;;;;;;;15.50;7.40;;;;;;;13.85;75.85;100111.60;108565;1275;22564;-83
2023/06/09 03:15:34;;;;;;;17.40;7.50;;;;;;;13.86;76.02;100107.17;108591;1272;22524;-84
2023/06/09 03:18:05;;;;;;;20.20;8.10;;;;;;;13.84;76.31;100109.36;108473;1271;23639;-85
2023/06/09 03:20:36;;;;;;;18.80;8.30;;;;;;;13.80;76.51;100103.63;108448;1272;25447;-84
2023/06/09 03:23:08;;;;;;;16.30;7.60;;;;;;;13.76;76.55;100104.84;108619;1275;22515;-86
2023/06/09 03:25:42;;;;;;;17.10;8.00;;;;;;;13.75;76.59;100106.63;108669;1275;22634;-84
2023/06/09 03:28:14;;;;;;;16.10;7.50;;;;;;;13.74;76.60;100103.34;108574;1269;23246;-84
2023/06/09 03:30:44;;;;;;;16.20;8.20;;;;;;;13.75;76.63;100102.74;108587;1275;25410;-84
2023/06/09 03:33:18;;;;;;;20.70;7.80;;;;;;;13.75;76.77;100105.60;108627;1275;22481;-85
2023/06/09 03:35:50;;;;;;;22.00;9.40;;;;;;;13.76;76.74;100101.58;108561;1275;22570;-84
2023/06/09 03:38:24;;;;;;;18.60;9.20;;;;;;;13.79;77.29;100105.77;108594;1275;23481;-84
2023/06/09 03:40:55;;;;;;;21.00;9.40;;;;;;;13.84;77.37;100106.80;108657;1275;22566;-84
2023/06/09 03:43:26;;;;;;;18.90;7.70;;;;;;;13.87;77.19;100107.27;108588;1269;22571;-85
2023/06/09 03:45:57;;;;;;;20.70;8.40;;;;;;;13.88;77.49;100102.99;108484;1266;22520;-84
2023/06/09 03:48:28;;;;;;;17.60;8.40;;;;;;;13.90;77.85;100102.44;108491;1271;22699;-84
2023/06/09 03:50:59;;;;;;;19.90;9.10;;;;;;;13.91;78.14;100101.20;108563;1275;23189;-84
2023/06/09 03:53:30;;;;;;;20.70;8.90;;;;;;;13.91;78.31;100107.02;108645;1270;22572;-84
2023/06/09 03:56:01;;;;;;;22.20;9.50;;;;;;;13.94;78.24;100106.79;108623;1272;22562;-84
2023/06/09 03:58:32;;;;;;;20.70;10.30;;;;;;;13.99;78.27;100109.35;108499;1269;22696;-84
2023/06/09 04:01:03;;;;;;;23.40;9.80;;;;;;;14.05;78.83;100114.38;108590;1275;22508;-84
2023/06/09 04:03:34;;;;;;;17.00;9.30;;;;;;;14.14;78.72;100119.05;108506;1272;22567;-84
2023/06/09 04:06:05;;;;;;;19.60;10.60;;;;;;;14.21;79.06;100117.58;108587;1275;23898;-84
2023/06/09 04:08:36;;;;;;;19.80;9.60;;;;;;;14.30;78.82;100116.30;108617;1275;22528;-84
2023/06/09 04:11:07;;;;;;;22.10;10.20;;;;;;;14.39;79.40;100118.47;108565;1270;24308;-85
2023/06/09 04:13:37;;;;;;;22.40;10.30;;;;;;;14.47;79.31;100119.65;108489;1269;25435;-84
2023/06/09 04:16:09;;;;;;;20.30;10.60;;;;;;;14.55;79.29;100123.23;108450;1269;24795;-87
2023/06/09 04:18:39;;;;;;;19.40;9.60;;;;;;;14.66;79.54;100120.02;108561;1275;22514;-84
2023/06/09 04:21:11;;;;;;;25.00;10.60;;;;;;;14.77;79.61;100121.77;108559;1271;24215;-84
2023/06/09 04:23:44;;;;;;;20.30;10.00;;;;;;;14.89;79.89;100122.08;108570;1273;22531;-85
2023/06/09 04:26:16;;;;;;;28.70;11.10;;;;;;;15.02;79.94;100122.42;108603;1270;25236;-84
2023/06/09 04:28:47;;;;;;;19.10;9.20;;;;;;;15.14;79.47;100121.64;108484;1275;22544;-83
2023/06/09 04:31:23;;;;;;;20.60;11.40;;;;;;;15.24;79.78;100120.15;108650;1269;24152;-84
2023/06/09 04:33:55;;;;;;;20.70;11.70;;;;;;;15.34;79.48;100124.56;108690;1271;25102;-83
2023/06/09 04:36:26;;;;;;;21.60;11.50;;;;;;;15.44;79.68;100122.56;108618;1268;22520;-84
2023/06/09 04:38:58;;;;;;;28.30;10.90;;;;;;;15.53;79.81;100124.85;108517;1266;22569;-84
2023/06/09 04:41:31;;;;;;;22.80;11.50;;;;;;;15.62;80.50;100129.22;108606;1271;22552;-84
2023/06/09 04:44:03;;;;;;;24.50;11.90;;;;;;;15.71;80.41;100135.69;108497;1275;25634;-85
2023/06/09 04:46:37;;;;;;;25.10;11.70;;;;;;;15.80;80.58;100133.72;108483;1272;22566;-86
2023/06/09 04:49:09;;;;;;;20.00;10.70;;;;;;;15.88;80.59;100127.29;108466;1266;22514;-84
2023/06/09 04:51:46;;;;;;;20.00;9.90;;;;;;;15.96;80.31;100129.39;108559;1275;23246;-84
2023/06/09 04:54:20;;;;;;;22.50;10.70;;;;;;;16.04;80.51;100132.23;108621;1271;22617;-84
2023/06/09 04:56:52;;;;;;;18.60;9.40;;;;;;;16.09;80.31;100134.30;108577;1269;22569;-84
2023/06/09 04:59:25;;;;;;;18.30;9.10;;;;;;;16.13;80.01;100132.34;108615;1257;22559;-85
2023/06/09 05:01:56;;;;;;;25.20;10.50;;;;;;;16.19;79.96;100129.59;108623;1268;22471;-85
2023/06/09 05:04:27;;;;;;;20.00;9.80;;;;;;;16.26;79.98;100129.60;108683;1269;25406;-84
2023/06/09 05:06:57;;;;;;;22.20;10.60;;;;;;;16.33;79.57;100133.66;108523;1272;22569;-85
2023/06/09 05:09:29;;;;;;;20.60;9.90;;;;;;;16.40;80.02;100134.48;108676;1273;22513;-85
2023/06/09 05:12:00;;;;;;;24.10;10.70;;;;;;;16.45;79.69;100136.71;108673;1275;23162;-84
2023/06/09 05:14:31;;;;;;;20.70;9.60;;;;;;;16.51;79.45;100134.80;108598;1275;23855;-85
2023/06/09 05:17:03;;;;;;;21.50;10.70;;;;;;;16.57;79.21;100133.73;108596;1272;22602;-86
2023/06/09 05:19:34;;;;;;;20.70;10.30;;;;;;;16.63;79.07;100136.00;108664;1273;25265;-84
2023/06/09 05:22:06;;;;;;;21.00;10.20;;;;;;;16.71;78.95;100137.94;108589;1273;22528;-84
2023/06/09 05:24:36;;;;;;;20.20;10.30;;;;;;;16.78;78.85;100139.31;108742;1265;22554;-86
2023/06/09 05:27:08;;;;;;;17.50;9.00;;;;;;;16.85;78.59;100143.37;108858;1275;22501;-84
2023/06/09 05:29:39;;;;;;;21.10;10.70;;;;;;;16.93;78.58;100145.34;108872;1273;24173;-86
2023/06/09 05:32:10;;;;;;;22.10;10.10;;;;;;;17.01;78.69;100148.16;108634;1272;24022;-84
2023/06/09 05:34:44;;;;;;;18.80;9.10;;;;;;;17.08;78.62;100142.04;108619;1275;22545;-84
2023/06/09 05:37:17;;;;;;;19.70;9.50;;;;;;;17.14;78.11;100138.24;108544;1273;22510;-85
2023/06/09 05:39:47;;;;;;;21.90;10.20;;;;;;;17.20;78.08;100138.39;108455;1269;22550;-84
2023/06/09 05:42:18;;;;;;;19.40;9.60;;;;;;;17.25;77.84;100137.68;108585;1275;25423;-85
2023/06/09 05:44:49;;;;;;;20.90;9.70;;;;;;;17.29;78.14;100141.64;108549;1271;22497;-85
2023/06/09 05:47:20;;;;;;;20.00;10.30;;;;;;;17.34;78.47;100143.08;108577;1270;25413;-84
2023/06/09 05:49:51;;;;;;;20.80;10.80;;;;;;;17.39;78.93;100144.35;108649;1275;23943;-84
2023/06/09 05:52:22;;;;;;;19.50;9.30;;;;;;;17.44;79.37;100143.23;108664;1267;23291;-84
2023/06/09 05:54:52;;;;;;;20.20;9.00;;;;;;;17.46;79.47;100141.00;108669;1275;22481;-85
2023/06/09 05:57:25;;;;;;;19.30;10.20;;;;;;;17.49;78.84;100141.81;108722;1272;22556;-85
2023/06/09 05:59:56;;;;;;;19.20;10.00;;;;;;;17.54;79.00;100147.77;108870;1272;22539;-85
2023/06/09 06:02:27;;;;;;;20.10;9.80;;;;;;;17.59;79.80;100148.64;108804;1269;22553;-85
2023/06/09 06:04:58;;;;;;;20.20;10.00;;;;;;;17.64;79.87;100146.84;108765;1273;23412;-85
2023/06/09 06:07:29;;;;;;;16.20;8.50;;;;;;;17.70;79.80;100147.50;108718;1275;22491;-86
2023/06/09 06:10:00;;;;;;;19.80;9.50;;;;;;;17.77;79.47;100143.35;108784;1275;22539;-85
2023/06/09 06:12:31;;;;;;;17.20;7.60;;;;;;;17.83;79.37;100146.16;108792;1270;22564;-84
2023/06/09 06:15:02;;;;;;;18.80;9.10;;;;;;;17.88;79.52;100148.30;108671;1272;22601;-84
2023/06/09 06:17:33;;;;;;;18.10;9.60;;;;;;;17.97;79.42;100147.02;108710;1268;22493;-84
2023/06/09 06:20:05;;;;;;;19.80;9.30;;;;;;;18.06;79.40;100144.59;108728;1270;25053;-81
2023/06/09 06:22:37;;;;;;;18.50;9.40;;;;;;;18.16;79.15;100148.45;108549;1268;22532;-83
2023/06/09 06:25:13;;;;;;;19.30;9.20;;;;;;;18.25;79.05;100148.45;108528;1272;22503;-81
2023/06/09 06:27:45;;;;;;;17.20;8.20;;;;;;;18.33;79.12;100150.38;108394;1269;24943;-83
2023/06/09 06:30:17;;;;;;;18.10;8.10;;;;;;;18.43;79.53;100147.54;108484;1275;24246;-79
2023/06/09 06:32:54;;;;;;;18.90;8.40;;;;;;;18.53;79.28;100151.93;108173;1272;25632;-80
2023/06/09 06:35:30;;;;;;;16.30;8.50;;;;;;;18.62;79.05;100146.40;108131;1268;22456;-79
2023/06/09 06:38:01;;;;;;;18.10;8.70;;;;;;;18.70;78.56;100149.36;108550;1267;22554;-80
2023/06/09 06:40:32;;;;;;;16.00;7.70;;;;;;;18.75;78.48;100149.13;108620;1271;23292;-81
2023/06/09 06:43:04;;;;;;;18.30;8.00;;;;;;;18.81;78.50;100149.74;104501;1273;5414728;-79
2023/06/09 06:45:34;;;;;;;18.80;9.00;;;;;;;18.90;78.60;100150.58;107972;1272;22524;-78
2023/06/09 06:48:05;;;;;;;15.50;7.80;;;;;;;18.96;78.29;100154.76;107991;1270;23299;-77
2023/06/09 06:50:37;;;;;;;16.80;8.10;;;;;;;19.04;78.19;100153.64;108033;1270;24382;-78
2023/06/09 06:53:08;;;;;;;19.90;8.40;;;;;;;19.12;78.09;100155.00;108112;1275;22530;-77
2023/06/09 06:55:40;;;;;;;18.10;7.60;;;;;;;19.18;77.65;100157.37;108814;1273;23377;-80
2023/06/09 06:58:11;;;;;;;17.80;8.60;;;;;;;19.25;77.75;100154.61;108785;1275;22588;-80
2023/06/09 07:00:42;;;;;;;17.50;8.30;;;;;;;19.33;77.95;100152.38;108599;1270;22561;-83
2023/06/09 07:03:16;;;;;;;18.10;9.20;;;;;;;19.42;77.71;100151.62;110375;1270;22195;-83
2023/06/09 07:05:48;;;;;;;17.80;8.30;;;;;;;19.49;77.35;100156.57;110443;1270;22159;-81
2023/06/09 07:08:21;;;;;;;18.30;8.50;;;;;;;19.57;77.24;100158.50;109118;1270;22567;-80
2023/06/09 07:10:52;;;;;;;17.00;8.60;;;;;;;19.67;77.03;100157.37;109101;1273;23141;-83
2023/06/09 07:13:22;;;;;;;16.90;7.90;;;;;;;19.82;77.37;100153.31;108909;1269;22521;-83
2023/06/09 07:15:53;;;;;;;17.30;7.30;;;;;;;19.99;77.13;100151.89;108554;1272;22517;-83
2023/06/09 07:18:24;;;;;;;18.80;8.20;;;;;;;20.16;77.15;100162.80;108767;1271;22602;-83
2023/06/09 07:20:55;;;;;;;15.80;7.40;;;;;;;20.33;76.98;100163.56;108491;1273;22623;-86
2023/06/09 07:23:26;;;;;;;15.70;7.80;;;;;;;20.47;76.47;100168.35;108550;1267;22560;-82
2023/06/09 07:25:56;;;;;;;13.50;7.00;;;;;;;20.60;76.36;100173.77;108552;1271;22552;-80
2023/06/09 07:28:27;;;;;;;14.20;6.90;;;;;;;20.71;75.96;100171.76;108556;1275;22575;-82
2023/06/09 07:30:58;;;;;;;14.20;6.80;;;;;;;20.79;75.02;100173.48;108360;1264;22518;-81
2023/06/09 07:33:32;;;;;;;16.30;7.10;;;;;;;20.85;75.38;100171.11;108403;1269;22702;-82
2023/06/09 07:36:02;;;;;;;13.90;6.20;;;;;;;20.92;75.16;100165.54;108372;1270;24594;-81
2023/06/09 07:38:33;;;;;;;17.00;7.60;;;;;;;20.97;75.07;100165.37;108335;1273;22517;-81
2023/06/09 07:41:04;;;;;;;20.80;7.70;;;;;;;21.01;74.71;100169.05;108238;1273;23816;-82
2023/06/09 07:43:35;;;;;;;20.10;7.60;;;;;;;21.05;74.89;100170.16;108476;1267;22515;-81
2023/06/09 07:46:07;;;;;;;14.90;7.50;;;;;;;21.10;74.87;100170.70;108283;1275;22502;-81
2023/06/09 07:48:39;;;;;;;16.50;7.50;;;;;;;21.14;74.66;100167.75;108296;1275;25432;-82
2023/06/09 07:51:10;;;;;;;13.60;6.90;;;;;;;21.18;74.26;100172.13;108399;1271;22549;-81
2023/06/09 07:53:40;;;;;;;16.40;6.80;;;;;;;21.23;74.32;100167.38;108337;1269;23398;-81
2023/06/09 07:56:11;;;;;;;17.50;6.20;;;;;;;21.29;73.91;100170.36;108355;1270;22552;-81
2023/06/09 07:58:42;;;;;;;17.10;6.50;;;;;;;21.34;73.58;100164.36;108362;1269;22757;-81
2023/06/09 08:01:12;;;;;;;15.60;6.00;;;;;;;21.39;72.93;100166.17;108419;1270;22508;-81
2023/06/09 08:03:44;;;;;;;13.90;5.50;;;;;;;21.40;72.83;100168.01;108379;1275;25420;-81
2023/06/09 08:06:15;;;;;;;14.80;6.00;;;;;;;21.42;72.95;100165.21;108509;1275;23991;-82
2023/06/09 08:08:46;;;;;;;14.10;5.80;;;;;;;21.43;72.32;100168.25;108391;1268;22610;-81
2023/06/09 08:11:17;;;;;;;14.90;6.50;;;;;;;21.43;72.29;100168.82;108190;1268;22549;-81
2023/06/09 08:13:48;;;;;;;13.50;5.50;;;;;;;21.43;72.13;100167.68;108219;1275;22533;-81
2023/06/09 08:16:19;;;;;;;18.50;7.00;;;;;;;21.43;71.82;100167.68;108383;1275;22553;-82
2023/06/09 08:18:49;;;;;;;14.00;5.50;;;;;;;21.42;71.67;100168.77;108470;1268;22563;-82
2023/06/09 08:21:22;;;;;;;14.30;6.30;;;;;;;21.40;71.38;100169.00;108492;1270;25611;-82
2023/06/09 08:23:53;;;;;;;15.00;7.10;;;;;;;21.41;71.64;100168.35;108428;1275;23504;-82
2023/06/09 08:26:24;;;;;;;12.50;5.30;;;;;;;21.42;71.33;100168.47;108432;1271;23417;-82
2023/06/09 08:28:55;;;;;;;14.50;6.50;;;;;;;21.42;70.98;100166.92;108378;1269;22517;-82
2023/06/09 08:31:27;;;;;;;15.50;6.00;;;;;;;21.44;71.11;100166.46;108299;1269;25908;-82
2023/06/09 08:33:58;;;;;;;15.50;6.00;;;;;;;21.46;71.03;100169.17;108352;1267;22559;-82
2023/06/09 08:36:29;;;;;;;17.50;6.90;;;;;;;21.48;71.73;100168.73;108424;1269;23028;-82
2023/06/09 08:39:01;;;;;;;15.20;5.90;;;;;;;21.47;71.99;100174.79;108447;1272;24202;-81
2023/06/09 08:41:38;;;;;;;15.70;6.70;;;;;;;21.46;71.94;100175.84;108460;1268;23591;-82
2023/06/09 08:44:08;;;;;;;18.20;6.50;;;;;;;21.48;71.90;100170.67;108498;1275;22980;-82
2023/06/09 08:46:44;;;;;;;13.80;6.30;;;;;;;21.50;71.56;100173.07;108483;1268;22554;-82
2023/06/09 08:49:17;;;;;;;15.20;7.10;;;;;;;21.52;71.92;100173.77;108440;1269;22524;-82
2023/06/09 08:51:49;;;;;;;15.10;6.50;;;;;;;21.57;71.47;100167.55;108291;1265;25483;-82
2023/06/09 08:54:21;;;;;;;16.90;6.90;;;;;;;21.61;71.45;100166.40;108348;1271;25310;-82
2023/06/09 08:56:52;;;;;;;13.80;6.50;;;;;;;21.64;71.36;100163.16;108332;1268;22566;-82
2023/06/09 08:59:24;;;;;;;13.90;6.20;;;;;;;21.68;71.46;100165.55;108429;1272;23829;-82
2023/06/09 09:01:55;;;;;;;14.90;6.10;;;;;;;21.73;71.40;100167.92;108598;1275;25303;-82
2023/06/09 09:04:26;;;;;;;14.20;6.10;;;;;;;21.78;71.51;100165.01;108999;1269;25418;-82
2023/06/09 09:06:58;;;;;;;14.00;6.70;;;;;;;21.87;71.71;100160.76;108668;1275;22557;-82
2023/06/09 09:09:29;;;;;;;14.00;6.40;;;;;;;21.95;71.38;100163.42;108445;1269;22530;-82
2023/06/09 09:12:03;;;;;;;16.70;7.90;;;;;;;22.02;70.91;100162.98;108452;1269;23890;-81
2023/06/09 09:14:34;;;;;;;19.00;9.70;;;;;;;22.09;71.02;100165.39;108398;1272;22718;-82
2023/06/09 09:17:12;;;;;;;20.60;9.40;;;;;;;22.13;70.63;100159.70;108336;1268;25933;-81
2023/06/09 09:19:47;;;;;;;17.00;7.60;;;;;;;22.17;70.41;100159.52;108264;1269;23200;-82
2023/06/09 09:22:19;;;;;;;14.50;5.50;;;;;;;22.22;69.94;100160.27;110462;1269;22280;-82
2023/06/09 09:24:50;;;;;;;13.80;5.90;;;;;;;22.23;69.65;100161.06;110421;1275;22251;-82
2023/06/09 09:27:26;;;;;;;15.10;6.90;;;;;;;22.25;69.35;100155.80;109490;1269;23312;-82
2023/06/09 09:29:57;;;;;;;15.70;5.70;;;;;;;22.30;68.85;100155.95;108395;1275;22563;-82
2023/06/09 09:32:29;;;;;;;12.20;5.20;;;;;;;22.33;68.62;100155.53;108435;1270;25884;-82
2023/06/09 09:35:02;;;;;;;14.70;5.20;;;;;;;22.36;68.10;100154.03;108465;1270;22578;-81
2023/06/09 09:37:35;;;;;;;12.50;4.70;;;;;;;22.41;68.09;100150.25;108326;1275;22628;-82
2023/06/09 09:40:15;;;;;;;10.10;4.50;;;;;;;22.48;67.75;100150.20;108294;1275;22455;-82
2023/06/09 09:42:48;;;;;;;12.30;5.30;;;;;;;22.58;67.47;100147.90;108302;1275;23307;-82
2023/06/09 09:45:37;;;;;;;13.70;5.20;;;;;;;22.69;67.50;100144.66;108264;1275;22520;-82
2023/06/09 09:48:12;;;;;;;11.90;5.40;;;;;;;22.83;66.91;100135.09;108287;1272;22536;-82
2023/06/09 09:50:48;;;;;;;9.80;4.70;;;;;;;22.96;66.70;100128.20;108410;1270;24247;-82
2023/06/09 09:53:21;;;;;;;12.10;5.30;;;;;;;23.14;66.79;100122.96;108376;1268;22573;-82
2023/06/09 09:55:55;;;;;;;10.20;4.90;;;;;;;23.28;65.83;100120.00;108391;1272;25308;-82
2023/06/09 09:58:34;;;;;;;12.30;5.00;;;;;;;23.37;65.44;100116.45;108399;1275;24293;-81
2023/06/09 10:01:08;;;;;;;15.20;5.40;;;;;;;23.43;64.29;100115.15;108451;1269;22525;-82
2023/06/09 10:03:42;;;;;;;14.70;5.30;;;;;;;23.47;64.36;100112.90;108256;1275;23533;-82
2023/06/09 10:06:19;;;;;;;10.90;4.80;;;;;;;23.53;64.23;100113.20;108278;1275;22643;-82
2023/06/09 10:08:52;;;;;;;12.80;5.60;;;;;;;23.66;64.01;100115.02;110443;1268;22836;-82
2023/06/09 10:11:25;;;;;;;11.20;4.80;;;;;;;23.81;63.66;100112.23;110463;1268;22165;-82
2023/06/09 10:13:56;;;;;;;12.00;5.70;;;;;;;23.91;63.18;100108.46;110447;1268;22222;-82
2023/06/09 10:16:28;;;;;;;14.10;5.40;;;;;;;23.97;63.07;100104.02;110444;1268;22329;-82
2023/06/09 10:19:00;;;;;;;12.40;5.70;;;;;;;24.01;62.54;100099.48;110491;1275;22160;-82
2023/06/09 10:21:35;;;;;;;10.70;4.90;;;;;;;24.04;62.42;100099.09;110418;1275;22322;-82
2023/06/09 10:24:10;;;;;;;13.50;5.50;;;;;;;24.08;62.13;100099.18;110463;1270;22248;-82
2023/06/09 10:26:41;;;;;;;18.90;4.90;;;;;;;24.10;61.96;100092.27;110462;1275;22205;-82
2023/06/09 10:29:14;;;;;;;12.80;5.10;;;;;;;24.11;61.72;100085.03;110498;1268;22148;-83
2023/06/09 10:31:50;;;;;;;12.10;5.30;;;;;;;24.07;61.68;100085.77;110428;1268;22816;-82
2023/06/09 10:34:23;;;;;;;12.60;5.70;;;;;;;24.07;61.34;100081.89;108455;1274;22602;-82
2023/06/09 10:36:57;;;;;;;12.40;5.00;;;;;;;24.06;61.61;100089.23;108296;1275;22676;-82
2023/06/09 10:39:44;;;;;;;12.70;5.10;;;;;;;24.04;61.44;100088.02;108311;1269;22532;-82
2023/06/09 10:42:27;;;;;;;11.50;5.90;;;;;;;23.98;61.25;100084.18;108304;1271;23944;-82
2023/06/09 10:45:09;;;;;;;14.20;5.80;;;;;;;23.92;61.06;100082.75;108345;1275;22717;-82
2023/06/09 10:47:49;;;;;;;11.70;5.00;;;;;;;23.88;61.13;100081.94;110480;1268;23084;-82
2023/06/09 10:50:30;;;;;;;15.90;6.10;;;;;;;23.82;61.33;100088.70;110434;1271;22133;-82
2023/06/09 10:53:02;;;;;;;15.80;6.60;;;;;;;23.74;62.78;100100.77;109484;1271;24254;-82
2023/06/09 10:55:33;;;;;;;11.60;4.90;;;;;;;23.61;62.38;100119.71;108317;1268;22924;-82
2023/06/09 10:58:04;;;;;;;11.60;4.20;;;;;;;23.40;61.76;100123.85;108259;1268;23238;-82
2023/06/09 11:01:07;;;;;;;8.40;3.40;;;;;;;23.12;60.98;100125.16;108555;1269;22994;-82
2023/06/09 11:03:39;;;;;;;9.40;3.40;;;;;;;22.82;61.47;100118.23;108480;1269;22487;-82
2023/06/09 11:06:10;;;;;;;13.50;4.20;;;;;;;22.60;62.25;100114.74;108388;1268;23149;-82
2023/06/09 11:09:09;;;;;;;12.40;4.10;;;;;;;22.45;63.05;100109.91;108404;1268;23421;-82
2023/06/09 11:11:54;;;;;;;10.50;4.80;;;;;;;22.33;63.80;100109.73;107934;1280;22518;-81
2023/06/09 11:14:52;;;;;;;12.20;4.70;;;;;;;22.27;64.91;100116.27;107941;1280;22774;-82
2023/06/09 11:17:26;;;;;;;15.30;4.60;;;;;;;22.14;66.02;100124.20;107958;1273;23814;-81
2023/06/09 11:20:19;;;;;;;11.60;4.20;;;;;;;21.89;67.18;100125.91;108033;1273;22533;-82
2023/06/09 11:23:06;;;;;;;10.40;4.10;;;;;;;21.56;68.07;100129.30;107954;1267;22494;-82
2023/06/09 11:25:41;;;;;;;10.60;4.70;;;;;;;21.31;68.55;100125.25;107815;1273;23822;-81
2023/06/09 11:28:24;;;;;;;12.80;5.00;;;;;;;21.20;68.79;100127.02;107889;1280;22720;-82
2023/06/09 11:31:08;;;;;;;9.80;4.70;;;;;;;21.17;69.00;100122.30;107950;1280;22552;-81
2023/06/09 11:33:53;;;;;;;10.30;3.90;;;;;;;21.22;69.96;100122.00;110064;1280;22240;-80
2023/06/09 11:36:27;;;;;;;10.60;3.90;;;;;;;21.13;70.11;100116.89;109995;1273;23008;-80